Time;durP1;ratioP1;P1;durP2;ratioP2;P2;SDS_P1;SDS_P2;PMS_P1;PMS_P2;Temp;Humidity;BMP_temperature;BMP_pressure;BME280_temperature;BME280_humidity;BME280_pressure;Samples;Min_cycle;Max_cycle;Signal;HPM_P1;HPM_P2
2021/03/14 00:00:42;;;;;;;32.20;15.82;;;;;;;1.15;59.86;99221.06;5053192;28;20394;-54
2021/03/14 00:03:13;;;;;;;31.80;16.23;;;;;;;1.21;59.81;99215.50;5052510;28;20037;-56
2021/03/14 00:05:40;;;;;;;29.52;16.10;;;;;;;1.31;59.74;99209.75;5056246;28;20486;-57
2021/03/14 00:08:08;;;;;;;37.75;16.73;;;;;;;1.25;59.79;99193.31;5071168;28;20036;-57
2021/03/14 00:10:33;;;;;;;33.92;16.25;;;;;;;1.47;59.31;99208.00;5072801;28;20119;-55
2021/03/14 00:13:00;;;;;;;31.63;16.50;;;;;;;1.50;59.16;99206.97;5070206;28;20135;-57
2021/03/14 00:15:25;;;;;;;34.88;16.60;;;;;;;1.42;59.22;99184.50;5070166;28;20498;-59
2021/03/14 00:17:51;;;;;;;33.88;16.15;;;;;;;1.43;59.53;99198.53;5065402;28;20036;-56
2021/03/14 00:20:17;;;;;;;34.63;16.40;;;;;;;1.47;59.58;99196.59;5052987;28;20061;-51
2021/03/14 00:22:43;;;;;;;32.22;15.00;;;;;;;1.21;59.24;99165.41;5052451;28;20028;-55
2021/03/14 00:25:09;;;;;;;32.63;15.80;;;;;;;1.43;59.76;99201.16;5051603;28;20441;-53
2021/03/14 00:27:35;;;;;;;31.98;16.27;;;;;;;1.45;59.60;99199.31;5061988;28;20544;-55
2021/03/14 00:30:02;;;;;;;31.80;16.83;;;;;;;1.50;59.79;99199.94;5067877;28;20033;-49
2021/03/14 00:32:28;;;;;;;29.55;16.23;;;;;;;1.54;59.67;99187.41;5069773;28;20037;-49
2021/03/14 00:34:54;;;;;;;31.95;16.55;;;;;;;1.60;59.17;99188.88;5058120;28;20048;-58
2021/03/14 00:37:20;;;;;;;32.67;15.80;;;;;;;1.27;59.48;99128.16;5053337;28;20387;-55
2021/03/14 00:39:46;;;;;;;34.75;16.30;;;;;;;1.66;58.81;99181.47;5051917;28;20093;-57
2021/03/14 00:42:11;;;;;;;31.95;16.23;;;;;;;1.68;59.03;99173.47;5051410;28;20035;-58
2021/03/14 00:44:37;;;;;;;32.40;16.02;;;;;;;1.54;59.26;99163.66;5060724;28;20067;-54
2021/03/14 00:47:03;;;;;;;28.48;15.82;;;;;;;1.56;59.24;99162.66;5070185;28;20066;-53
2021/03/14 00:49:28;;;;;;;29.40;16.02;;;;;;;1.58;58.79;99152.88;5071871;28;20064;-55
2021/03/14 00:51:54;;;;;;;26.48;15.20;;;;;;;1.65;58.88;99157.81;5071771;28;20033;-57
2021/03/14 00:54:19;;;;;;;29.80;15.63;;;;;;;1.67;59.26;99182.31;5070359;28;20068;-56
2021/03/14 00:56:45;;;;;;;29.77;16.13;;;;;;;1.61;58.92;99180.00;5069764;28;20040;-55
2021/03/14 00:59:11;;;;;;;28.35;15.57;;;;;;;1.56;59.32;99169.69;5068850;28;20036;-54
2021/03/14 01:01:36;;;;;;;29.88;15.25;;;;;;;1.48;59.29;99159.59;5071216;28;20028;-57
2021/03/14 01:04:02;;;;;;;30.80;14.60;;;;;;;1.53;59.35;99164.59;5071721;28;20110;-57
2021/03/14 01:06:28;;;;;;;30.73;15.02;;;;;;;1.29;59.31;99114.84;5064961;28;20429;-57
2021/03/14 01:08:53;;;;;;;31.10;16.42;;;;;;;1.48;59.73;99170.13;5053222;28;20041;-59
2021/03/14 01:11:19;;;;;;;28.65;14.68;;;;;;;1.48;59.26;99159.59;5051690;28;20504;-57
2021/03/14 01:13:44;;;;;;;29.58;15.13;;;;;;;1.48;59.39;99150.81;5051639;28;20029;-54
2021/03/14 01:16:10;;;;;;;30.83;16.13;;;;;;;1.42;59.38;99144.94;5051785;28;20048;-58
2021/03/14 01:18:35;;;;;;;29.60;15.80;;;;;;;1.45;59.42;99148.34;5051843;28;20124;-58
2021/03/14 01:21:01;;;;;;;27.60;14.52;;;;;;;1.51;59.51;99145.34;5053192;28;20123;-52
2021/03/14 01:23:26;;;;;;;27.58;15.68;;;;;;;1.49;59.23;99153.38;5051136;28;20044;-56
2021/03/14 01:25:52;;;;;;;26.23;15.55;;;;;;;1.42;59.67;99142.28;5056828;28;20052;-57
2021/03/14 01:28:18;;;;;;;27.00;14.52;;;;;;;1.55;59.31;99160.94;5062246;28;20067;-56
2021/03/14 01:30:44;;;;;;;28.75;14.52;;;;;;;1.58;58.67;99173.97;5060775;28;20095;-54
2021/03/14 01:33:10;;;;;;;30.00;14.68;;;;;;;1.61;59.25;99164.19;5058932;28;20041;-56
2021/03/14 01:35:35;;;;;;;30.10;15.43;;;;;;;1.24;59.13;99111.63;5050815;28;20064;-53
2021/03/14 01:38:01;;;;;;;29.38;14.95;;;;;;;1.42;59.40;99133.50;5052195;28;20033;-58
2021/03/14 01:40:27;;;;;;;32.13;15.68;;;;;;;1.55;59.26;99163.59;5050841;28;20082;-54
2021/03/14 01:42:53;;;;;;;27.25;14.73;;;;;;;1.66;59.05;99172.69;5051017;28;20120;-55
2021/03/14 01:45:20;;;;;;;29.83;15.07;;;;;;;1.58;59.09;99158.16;5051591;28;20052;-53
2021/03/14 01:47:47;;;;;;;29.13;14.95;;;;;;;1.66;59.11;99167.41;5051549;28;20529;-56
2021/03/14 01:50:19;;;;;;;28.10;15.05;;;;;;;1.57;59.49;99179.34;5050445;28;20037;-55
2021/03/14 01:52:45;;;;;;;28.05;13.52;;;;;;;1.58;59.08;99187.16;5050672;28;20410;-56
2021/03/14 01:55:12;;;;;;;30.02;15.45;;;;;;;1.33;59.16;99152.47;5050341;28;20073;-55
2021/03/14 01:57:38;;;;;;;29.70;14.25;;;;;;;1.56;59.07;99188.16;5051379;28;20418;-53
2021/03/14 02:00:10;;;;;;;25.05;14.05;;;;;;;1.54;59.47;99190.91;5051798;28;20036;-56
2021/03/14 02:02:36;;;;;;;26.75;14.82;;;;;;;1.48;59.17;99183.34;5049929;28;20074;-59
2021/03/14 02:05:04;;;;;;;24.73;13.77;;;;;;;1.54;59.20;99196.19;5049994;28;20135;-57
2021/03/14 02:07:30;;;;;;;23.05;12.77;;;;;;;1.52;59.57;99198.06;5049788;28;20032;-57
2021/03/14 02:09:56;;;;;;;26.48;13.90;;;;;;;1.42;59.30;99196.81;5052956;28;20129;-53
2021/03/14 02:12:25;;;;;;;25.05;14.00;;;;;;;1.25;59.47;99158.16;5061913;28;20040;-57
2021/03/14 02:14:55;;;;;;;23.95;12.40;;;;;;;1.63;59.32;99207.16;5069496;28;20123;-53
2021/03/14 02:17:26;;;;;;;26.48;14.27;;;;;;;1.62;58.96;99194.91;5070349;28;20033;-55
2021/03/14 02:19:59;;;;;;;24.40;13.13;;;;;;;1.54;59.23;99180.34;5066691;28;20071;-56
2021/03/14 02:22:25;;;;;;;22.90;12.63;;;;;;;1.54;59.40;99188.28;5050611;28;20044;-58
2021/03/14 02:25:00;;;;;;;26.27;14.30;;;;;;;1.47;59.90;99170.22;5049628;28;20053;-57
2021/03/14 02:27:27;;;;;;;25.42;13.68;;;;;;;1.45;59.10;99161.53;5059097;28;20110;-56
2021/03/14 02:29:53;;;;;;;23.75;14.00;;;;;;;1.58;59.22;99179.25;5062462;28;20492;-57
2021/03/14 02:32:21;;;;;;;25.65;14.43;;;;;;;1.51;59.02;99161.19;5053707;28;20068;-58
2021/03/14 02:34:53;;;;;;;25.35;13.40;;;;;;;1.69;59.20;99193.66;5051093;28;20062;-59
2021/03/14 02:37:20;;;;;;;29.95;14.48;;;;;;;1.27;58.85;99141.34;5049664;28;20029;-54
2021/03/14 02:39:46;;;;;;;24.17;13.55;;;;;;;1.69;59.05;99191.03;5049894;28;20155;-54
2021/03/14 02:42:13;;;;;;;27.73;14.60;;;;;;;1.72;58.83;99202.25;5052595;28;20037;-55
2021/03/14 02:44:43;;;;;;;27.75;14.73;;;;;;;1.72;58.97;99189.06;5049645;28;20083;-51
2021/03/14 02:47:09;;;;;;;24.63;14.40;;;;;;;1.81;58.84;99189.47;5047971;28;20052;-58
2021/03/14 02:49:36;;;;;;;27.65;14.55;;;;;;;1.83;58.54;99177.09;5049960;28;20284;-55
2021/03/14 02:52:05;;;;;;;27.30;14.90;;;;;;;1.83;59.07;99177.91;5052678;28;20037;-53
2021/03/14 02:54:33;;;;;;;25.77;13.90;;;;;;;1.80;58.87;99156.09;5048848;28;20383;-59
2021/03/14 02:56:59;;;;;;;25.00;14.20;;;;;;;1.82;58.42;99157.72;5049357;28;20482;-54
2021/03/14 02:59:25;;;;;;;26.45;15.65;;;;;;;1.72;59.07;99138.06;5060849;28;20420;-57
2021/03/14 03:01:51;;;;;;;27.23;14.77;;;;;;;1.83;58.93;99166.53;5064952;28;20130;-56
2021/03/14 03:04:23;;;;;;;26.73;14.55;;;;;;;1.84;58.90;99160.31;5049476;28;20110;-59
2021/03/14 03:06:50;;;;;;;29.73;15.38;;;;;;;1.75;58.75;99140.53;5049825;28;20056;-58
2021/03/14 03:09:17;;;;;;;30.92;15.15;;;;;;;1.83;58.65;99146.25;5052386;28;20474;-57
2021/03/14 03:11:43;;;;;;;31.48;15.38;;;;;;;1.78;59.08;99140.38;5049595;28;20037;-55
2021/03/14 03:14:14;;;;;;;29.50;15.55;;;;;;;1.78;59.29;99139.50;5050506;28;20048;-59
2021/03/14 03:16:45;;;;;;;25.83;14.30;;;;;;;1.73;59.62;99166.16;5049891;28;20128;-54
2021/03/14 03:19:12;;;;;;;25.80;13.98;;;;;;;1.75;59.55;99148.47;5050876;28;20041;-56
2021/03/14 03:21:38;;;;;;;29.73;15.27;;;;;;;1.76;59.38;99144.00;5050268;28;20109;-55
2021/03/14 03:24:06;;;;;;;24.10;13.57;;;;;;;1.78;59.41;99148.28;5050227;28;20608;-55
2021/03/14 03:26:31;;;;;;;27.42;14.02;;;;;;;1.77;59.53;99138.66;5055921;28;20135;-56
2021/03/14 03:28:57;;;;;;;26.23;13.52;;;;;;;1.76;59.67;99139.59;5061267;28;20135;-56
2021/03/14 03:31:22;;;;;;;28.75;15.48;;;;;;;1.80;59.53;99130.56;5053525;28;20040;-59
2021/03/14 03:33:48;;;;;;;32.63;15.82;;;;;;;1.82;59.75;99123.41;5056926;28;20040;-55
2021/03/14 03:36:14;;;;;;;26.90;14.27;;;;;;;1.75;59.79;99116.78;5069551;28;20052;-53
2021/03/14 03:38:39;;;;;;;26.90;15.15;;;;;;;1.83;59.46;99126.94;5069554;28;20056;-54
2021/03/14 03:41:05;;;;;;;28.95;15.70;;;;;;;1.66;59.26;99085.63;5065370;28;20077;-57
2021/03/14 03:43:34;;;;;;;27.75;15.60;;;;;;;1.82;60.03;99114.66;5066869;28;20116;-57
2021/03/14 03:46:03;;;;;;;26.23;15.02;;;;;;;1.79;59.54;99096.34;5069403;28;20056;-57
2021/03/14 03:48:43;;;;;;;29.75;15.68;;;;;;;1.84;59.91;99116.25;5069501;28;20567;-51
2021/03/14 03:51:10;;;;;;;30.02;15.38;;;;;;;1.82;59.82;99123.41;5065467;28;20911;-52
2021/03/14 03:53:38;;;;;;;30.85;16.13;;;;;;;1.79;60.45;99125.38;5067322;28;20201;-58
2021/03/14 03:56:05;;;;;;;29.00;15.98;;;;;;;1.78;60.61;99121.91;5049508;28;20148;-54
2021/03/14 03:58:31;;;;;;;30.13;16.40;;;;;;;1.77;60.41;99125.47;5048965;28;20025;-58
2021/03/14 04:00:59;;;;;;;28.42;16.05;;;;;;;1.72;60.44;99114.31;5053456;28;20037;-59
2021/03/14 04:03:24;;;;;;;31.23;16.30;;;;;;;1.73;60.43;99123.94;5053296;28;20056;-58
2021/03/14 04:05:56;;;;;;;32.53;16.73;;;;;;;1.72;60.91;99112.53;5053270;28;20045;-53
2021/03/14 04:08:22;;;;;;;30.13;15.75;;;;;;;1.42;61.02;99057.03;5052230;28;20457;-56
2021/03/14 04:10:48;;;;;;;30.42;16.77;;;;;;;1.76;61.16;99100.00;5052459;28;20039;-54
2021/03/14 04:13:15;;;;;;;32.85;16.88;;;;;;;1.76;61.33;99107.06;5054560;28;20073;-53
2021/03/14 04:15:41;;;;;;;30.40;16.45;;;;;;;1.39;61.32;99038.72;5058442;28;20040;-56
2021/03/14 04:18:07;;;;;;;32.15;16.70;;;;;;;1.65;61.29;99074.22;5072015;28;20055;-56
2021/03/14 04:20:36;;;;;;;33.22;16.83;;;;;;;1.35;61.56;99034.56;5072309;28;20037;-61
2021/03/14 04:23:28;;;;;;;31.48;17.00;;;;;;;1.88;61.24;99106.41;5068550;28;20039;-55
2021/03/14 04:25:56;;;;;;;34.67;17.30;;;;;;;1.48;61.03;99038.25;5061010;28;20106;-57
2021/03/14 04:28:25;;;;;;;31.80;16.15;;;;;;;1.86;61.28;99095.06;5054878;28;20119;-55
2021/03/14 04:30:52;;;;;;;30.52;16.52;;;;;;;1.86;61.37;99088.00;5067649;28;20037;-54
2021/03/14 04:33:18;;;;;;;31.80;15.90;;;;;;;1.76;61.29;99078.91;5054021;28;20532;-56
2021/03/14 04:35:45;;;;;;;30.30;15.32;;;;;;;1.84;61.36;99100.44;5051940;28;20040;-59
2021/03/14 04:38:11;;;;;;;32.72;17.42;;;;;;;1.82;61.27;99090.91;5071187;28;20531;-56
2021/03/14 04:40:36;;;;;;;36.00;17.75;;;;;;;1.73;61.74;99060.59;5056908;28;20116;-57
2021/03/14 04:43:04;;;;;;;35.03;17.63;;;;;;;1.92;61.28;99109.69;5068634;28;20118;-57
2021/03/14 04:45:32;;;;;;;32.53;16.55;;;;;;;1.92;61.53;99107.91;5070322;28;20513;-56
2021/03/14 04:47:57;;;;;;;31.38;15.93;;;;;;;1.85;61.36;99073.09;5057141;28;20044;-57
2021/03/14 04:50:26;;;;;;;29.88;15.65;;;;;;;1.91;61.20;99085.09;5051444;28;20048;-54
2021/03/14 04:52:55;;;;;;;32.83;17.63;;;;;;;1.86;61.14;99080.06;5052257;28;20087;-59
2021/03/14 04:55:22;;;;;;;30.70;16.63;;;;;;;2.06;61.00;99091.28;5054192;28;20045;-57
2021/03/14 04:57:48;;;;;;;34.63;17.50;;;;;;;2.14;60.67;99091.69;5052081;28;20441;-56
2021/03/14 05:00:17;;;;;;;35.83;17.60;;;;;;;2.22;61.31;99108.91;5051402;28;20457;-56
2021/03/14 05:02:46;;;;;;;34.88;18.35;;;;;;;2.27;60.77;99106.84;5051382;28;20516;-57
2021/03/14 05:05:13;;;;;;;33.35;18.08;;;;;;;2.15;60.50;99088.09;5051607;28;20406;-57
2021/03/14 05:07:43;;;;;;;31.80;15.95;;;;;;;2.13;61.21;99090.00;5051758;28;20025;-56
2021/03/14 05:10:12;;;;;;;30.33;16.33;;;;;;;2.24;61.11;99102.56;5050879;28;20044;-55
2021/03/14 05:12:42;;;;;;;31.33;16.38;;;;;;;2.24;61.02;99105.22;5051563;28;20036;-55
2021/03/14 05:15:12;;;;;;;32.58;16.98;;;;;;;2.23;60.88;99100.88;5052254;28;20075;-58
2021/03/14 05:17:38;;;;;;;31.20;15.90;;;;;;;2.28;60.46;99124.38;5069728;28;20028;-56
2021/03/14 05:20:07;;;;;;;32.60;17.23;;;;;;;2.31;60.49;99108.38;5069052;28;20429;-57
2021/03/14 05:22:33;;;;;;;34.40;16.35;;;;;;;2.31;60.39;99095.16;5071117;28;20060;-57
2021/03/14 05:25:00;;;;;;;32.97;16.98;;;;;;;2.29;60.52;99115.53;5064570;28;20123;-56
2021/03/14 05:27:27;;;;;;;34.97;16.58;;;;;;;2.27;60.74;99094.47;5055810;28;20044;-55
2021/03/14 05:29:53;;;;;;;34.58;16.50;;;;;;;2.35;60.43;99103.75;5052219;28;20044;-58
2021/03/14 05:32:18;;;;;;;31.10;16.13;;;;;;;2.34;60.48;99092.31;5050814;28;20032;-56
2021/03/14 05:34:44;;;;;;;33.33;16.83;;;;;;;2.23;60.59;99071.00;5050883;28;20310;-56
2021/03/14 05:37:09;;;;;;;32.30;16.92;;;;;;;2.38;60.44;99098.28;5052510;28;20056;-54
2021/03/14 05:39:35;;;;;;;32.70;15.65;;;;;;;2.41;60.64;99113.97;5051376;28;20491;-58
2021/03/14 05:42:02;;;;;;;29.52;15.90;;;;;;;2.02;60.16;99036.97;5050815;28;20029;-56
2021/03/14 05:44:28;;;;;;;31.70;16.52;;;;;;;2.48;60.44;99109.19;5055668;28;20028;-52
2021/03/14 05:46:53;;;;;;;28.42;15.50;;;;;;;2.49;60.05;99109.06;5067194;28;20040;-56
2021/03/14 05:49:19;;;;;;;32.58;15.75;;;;;;;2.50;60.44;99123.97;5069212;28;20067;-52
2021/03/14 05:51:51;;;;;;;28.20;14.85;;;;;;;2.49;60.21;99113.53;5069731;28;20072;-50
2021/03/14 05:54:18;;;;;;;28.13;15.02;;;;;;;2.55;60.15;99116.66;5066325;28;20039;-56
2021/03/14 05:56:46;;;;;;;28.85;14.45;;;;;;;2.63;60.14;99118.81;5059672;28;20727;-57
2021/03/14 05:59:13;;;;;;;31.80;14.27;;;;;;;2.66;59.62;99116.03;5050999;28;20049;-57
2021/03/14 06:01:40;;;;;;;25.52;13.65;;;;;;;2.65;59.49;99110.81;5051349;28;20490;-53
2021/03/14 06:04:09;;;;;;;28.70;15.48;;;;;;;2.72;60.17;99122.72;5058113;28;20483;-59
2021/03/14 06:06:36;;;;;;;24.38;13.25;;;;;;;2.78;59.74;99117.09;5058722;28;20021;-58
2021/03/14 06:09:01;;;;;;;25.88;13.35;;;;;;;2.77;59.60;99099.50;5052206;28;20072;-56
2021/03/14 06:11:29;;;;;;;24.58;13.27;;;;;;;2.88;59.52;99127.94;5051048;28;20513;-55
2021/03/14 06:13:55;;;;;;;29.05;14.40;;;;;;;2.71;59.47;99079.59;5051445;28;20044;-58
2021/03/14 06:16:21;;;;;;;23.70;12.50;;;;;;;2.94;59.58;99132.88;5062537;28;20032;-58
2021/03/14 06:18:51;;;;;;;25.95;13.02;;;;;;;2.97;59.59;99114.19;5051837;28;20058;-57
2021/03/14 06:21:30;;;;;;;27.75;14.93;;;;;;;3.04;59.71;99111.16;5050212;28;20043;-57
2021/03/14 06:23:58;;;;;;;24.40;13.45;;;;;;;3.10;59.02;99116.06;5058443;28;20037;-57
2021/03/14 06:26:42;;;;;;;24.73;14.23;;;;;;;3.10;59.44;99118.69;5058139;28;20417;-53
2021/03/14 06:29:16;;;;;;;25.50;14.32;;;;;;;3.13;59.52;99115.88;5053487;28;20167;-55
2021/03/14 06:31:52;;;;;;;26.98;14.25;;;;;;;3.12;59.14;99116.81;5056103;28;20036;-57
2021/03/14 06:34:38;;;;;;;26.38;13.43;;;;;;;3.18;59.38;99118.25;5049850;28;20045;-55
2021/03/14 06:37:07;;;;;;;30.95;14.43;;;;;;;3.19;59.52;99126.09;5049480;28;20045;-56
2021/03/14 06:39:35;;;;;;;26.63;14.00;;;;;;;3.22;59.16;99125.91;5051808;28;20044;-56
2021/03/14 06:42:00;;;;;;;25.88;14.35;;;;;;;3.27;58.86;99126.47;5050539;28;20383;-50
2021/03/14 06:44:33;;;;;;;28.10;14.68;;;;;;;3.16;59.36;99099.84;5049824;28;20128;-60
2021/03/14 06:47:00;;;;;;;26.63;13.57;;;;;;;3.33;59.03;99111.16;5065659;28;20045;-58
2021/03/14 06:49:29;;;;;;;30.23;14.50;;;;;;;3.38;58.89;99117.03;5067631;28;20048;-55
2021/03/14 06:51:59;;;;;;;25.98;13.45;;;;;;;3.44;59.20;99112.19;5063674;28;20048;-58
2021/03/14 06:54:33;;;;;;;33.15;15.10;;;;;;;3.49;58.73;99109.25;5066399;28;20438;-58
2021/03/14 06:57:09;;;;;;;29.52;14.73;;;;;;;3.53;58.82;99108.09;5069165;28;20090;-53
2021/03/14 06:59:39;;;;;;;30.63;15.73;;;;;;;3.47;58.95;99113.78;5066623;28;20028;-58
2021/03/14 07:02:07;;;;;;;30.75;14.90;;;;;;;3.05;58.83;99046.72;5061824;28;20463;-60
2021/03/14 07:04:53;;;;;;;28.10;14.38;;;;;;;3.55;59.19;99126.56;5060851;28;20029;-59
2021/03/14 07:07:33;;;;;;;31.80;15.57;;;;;;;3.54;58.98;99111.63;5067914;28;20029;-65
2021/03/14 07:10:07;;;;;;;29.05;14.93;;;;;;;3.52;58.83;99119.63;5070908;28;20040;-56
2021/03/14 07:12:43;;;;;;;32.15;14.18;;;;;;;3.57;58.25;99133.44;5075676;28;20050;-60
2021/03/14 07:15:12;;;;;;;32.97;14.50;;;;;;;3.54;58.73;99125.69;5073148;28;20573;-66
2021/03/14 07:17:38;;;;;;;32.03;14.98;;;;;;;3.52;58.83;99117.00;5078792;28;20040;-60
2021/03/14 07:20:16;;;;;;;29.45;14.57;;;;;;;3.61;59.51;99110.28;5080228;28;20024;-64
2021/03/14 07:22:57;;;;;;;26.80;13.23;;;;;;;3.82;58.34;99112.50;5066538;28;20037;-60
2021/03/14 07:25:23;;;;;;;29.52;14.90;;;;;;;3.78;57.93;99101.25;5056206;28;20033;-62
2021/03/14 07:27:50;;;;;;;28.52;14.60;;;;;;;3.81;58.52;99106.34;5050959;28;20033;-61
2021/03/14 07:30:21;;;;;;;28.38;14.90;;;;;;;3.87;58.58;99092.72;5056548;28;20029;-61
2021/03/14 07:32:47;;;;;;;63.65;17.25;;;;;;;3.98;58.30;99097.34;5050236;28;20033;-62
2021/03/14 07:35:14;;;;;;;39.63;15.95;;;;;;;4.00;58.23;99079.53;5052944;28;20111;-60
2021/03/14 07:37:42;;;;;;;30.27;15.30;;;;;;;3.97;57.88;99085.00;5053461;28;20052;-61
2021/03/14 07:40:13;;;;;;;32.10;14.52;;;;;;;4.15;58.19;99104.16;5064291;28;20029;-63
2021/03/14 07:42:38;;;;;;;33.70;14.98;;;;;;;3.90;57.74;99045.81;5057025;28;20059;-61
2021/03/14 07:45:15;;;;;;;36.38;15.20;;;;;;;4.24;58.55;99104.50;5061946;28;20554;-61
2021/03/14 07:47:42;;;;;;;39.63;16.10;;;;;;;4.23;57.95;99085.13;5046648;28;20069;-64
2021/03/14 07:50:30;;;;;;;32.70;16.27;;;;;;;4.41;58.19;99095.44;5055944;28;20032;-58
2021/03/14 07:53:03;;;;;;;30.85;15.57;;;;;;;4.42;57.38;99105.06;5063947;28;20076;-55
2021/03/14 07:55:29;;;;;;;28.38;15.30;;;;;;;4.36;57.26;99094.88;5057917;28;20490;-57
2021/03/14 07:57:55;;;;;;;30.52;15.63;;;;;;;4.34;57.63;99087.06;5059487;28;20036;-59
2021/03/14 08:00:23;;;;;;;32.00;15.43;;;;;;;4.47;57.11;99088.88;5062961;28;20029;-60
2021/03/14 08:02:59;;;;;;;30.85;15.60;;;;;;;4.46;58.03;99090.66;5051585;28;20086;-58
2021/03/14 08:05:40;;;;;;;35.78;16.27;;;;;;;4.52;57.73;99095.56;5056158;28;20045;-56
2021/03/14 08:08:25;;;;;;;33.30;15.90;;;;;;;4.59;57.16;99091.53;5063899;28;20029;-59
2021/03/14 08:10:51;;;;;;;33.47;15.55;;;;;;;4.52;56.64;99063.75;5052478;28;20045;-59
2021/03/14 08:13:43;;;;;;;30.25;15.52;;;;;;;4.56;57.21;99081.16;5052326;28;20036;-60
2021/03/14 08:16:13;;;;;;;31.70;15.80;;;;;;;4.54;57.26;99084.84;5054253;28;20095;-54
2021/03/14 08:18:47;;;;;;;31.08;16.05;;;;;;;4.48;57.64;99072.00;5066667;28;20040;-57
2021/03/14 08:21:21;;;;;;;29.10;15.70;;;;;;;4.51;57.71;99079.75;5052200;28;20037;-59
2021/03/14 08:23:52;;;;;;;33.65;16.80;;;;;;;4.49;57.71;99079.88;5052063;28;20068;-58
2021/03/14 08:26:24;;;;;;;32.08;16.27;;;;;;;4.49;57.58;99065.75;5053928;28;20521;-57
2021/03/14 08:29:12;;;;;;;35.45;16.52;;;;;;;4.61;57.37;99078.19;5053272;28;20087;-58
2021/03/14 08:31:47;;;;;;;32.90;16.30;;;;;;;4.67;57.27;99083.06;5071710;28;20522;-55
2021/03/14 08:34:43;;;;;;;37.60;16.48;;;;;;;4.73;56.89;99080.00;5067112;28;20032;-57
2021/03/14 08:37:23;;;;;;;37.20;16.00;;;;;;;4.72;57.51;99075.66;5066095;28;20036;-56
2021/03/14 08:39:48;;;;;;;30.15;15.93;;;;;;;4.36;56.89;99016.25;5063004;28;20414;-56
2021/03/14 08:42:14;;;;;;;33.85;17.55;;;;;;;4.67;56.87;99077.78;5068293;28;20105;-58
2021/03/14 08:44:47;;;;;;;38.47;17.45;;;;;;;4.55;57.34;99045.00;5072547;28;20051;-59
2021/03/14 08:47:14;;;;;;;33.38;16.17;;;;;;;4.72;56.76;99075.66;5066851;28;20040;-58
2021/03/14 08:49:52;;;;;;;39.88;18.05;;;;;;;4.74;56.77;99063.13;5069303;28;20032;-55
2021/03/14 08:52:19;;;;;;;32.08;16.83;;;;;;;4.86;57.08;99072.03;5069425;28;20032;-52
2021/03/14 08:54:54;;;;;;;32.97;16.58;;;;;;;4.95;56.71;99065.25;5065403;28;20451;-58
2021/03/14 08:57:20;;;;;;;35.60;16.85;;;;;;;5.03;56.37;99084.13;5070067;28;20044;-58
2021/03/14 08:59:54;;;;;;;33.70;16.40;;;;;;;5.15;56.53;99093.03;5067640;28;20033;-53
2021/03/14 09:02:39;;;;;;;35.08;17.40;;;;;;;5.26;56.39;99083.50;5070134;28;20156;-51
2021/03/14 09:05:09;;;;;;;37.15;18.08;;;;;;;5.32;56.46;99083.06;5064073;28;20050;-54
2021/03/14 09:07:35;;;;;;;35.90;17.52;;;;;;;5.15;55.55;99044.44;5065225;28;20089;-58
2021/03/14 09:10:15;;;;;;;35.28;17.67;;;;;;;5.45;55.97;99093.66;5055854;28;20033;-60
2021/03/14 09:12:41;;;;;;;47.17;20.23;;;;;;;5.31;55.81;99054.81;5051465;28;20140;-55
2021/03/14 09:15:12;;;;;;;38.22;18.23;;;;;;;5.44;55.44;99078.69;5068676;28;20056;-59
2021/03/14 09:17:40;;;;;;;42.17;19.10;;;;;;;5.14;55.61;99045.41;5057557;28;20044;-57
2021/03/14 09:20:08;;;;;;;39.65;17.98;;;;;;;5.32;55.90;99088.34;5059429;28;20037;-57
2021/03/14 09:22:36;;;;;;;38.65;18.20;;;;;;;5.04;56.29;99047.84;5057276;28;20044;-56
2021/03/14 09:25:08;;;;;;;38.40;18.75;;;;;;;4.81;56.18;99025.56;5060140;28;20052;-53
2021/03/14 09:27:35;;;;;;;37.53;18.45;;;;;;;5.14;56.15;99080.72;5068787;28;20624;-57
2021/03/14 09:30:07;;;;;;;38.05;19.10;;;;;;;5.19;56.37;99080.41;5063205;28;20111;-58
2021/03/14 09:32:41;;;;;;;37.08;17.75;;;;;;;5.24;56.25;99090.72;5069000;28;20047;-55
2021/03/14 09:35:18;;;;;;;37.92;18.25;;;;;;;5.29;55.62;99086.75;5066551;28;20044;-59
2021/03/14 09:37:52;;;;;;;42.05;19.30;;;;;;;5.29;55.93;99065.53;5068456;28;20097;-54
2021/03/14 09:40:54;;;;;;;37.35;18.95;;;;;;;5.32;55.90;99086.56;5066770;28;20059;-57
2021/03/14 09:43:28;;;;;;;37.90;18.50;;;;;;;5.39;55.98;99081.66;5062970;28;20080;-53
2021/03/14 09:45:56;;;;;;;36.90;18.15;;;;;;;5.38;55.89;99074.66;5069199;28;20059;-60
2021/03/14 09:48:31;;;;;;;37.83;18.27;;;;;;;5.19;56.19;99083.06;5070081;28;20067;-61
2021/03/14 09:51:01;;;;;;;39.92;19.25;;;;;;;5.20;55.69;99075.97;5056173;28;20048;-59
2021/03/14 09:53:32;;;;;;;36.83;18.70;;;;;;;5.23;56.29;99094.34;5053503;28;20048;-56
2021/03/14 09:56:01;;;;;;;39.30;20.42;;;;;;;5.28;56.15;99097.50;5063743;28;20036;-52
2021/03/14 09:58:28;;;;;;;39.90;19.60;;;;;;;5.35;55.39;99096.09;5061367;28;20029;-59
2021/03/14 10:00:56;;;;;;;43.63;20.65;;;;;;;5.04;56.29;99010.72;5060443;28;20501;-61
2021/03/14 10:03:25;;;;;;;44.40;20.67;;;;;;;5.47;55.97;99070.50;5059252;28;20047;-57
2021/03/14 10:05:53;;;;;;;42.72;20.40;;;;;;;5.48;56.21;99069.53;5057764;28;20531;-60
2021/03/14 10:08:23;;;;;;;41.10;19.83;;;;;;;5.48;55.78;99074.84;5058373;28;20537;-57
2021/03/14 10:10:51;;;;;;;46.95;21.65;;;;;;;5.12;55.72;99028.75;5051793;28;20032;-65
2021/03/14 10:13:18;;;;;;;41.53;20.63;;;;;;;5.36;55.95;99060.63;5050519;28;20139;-60
2021/03/14 10:15:47;;;;;;;39.97;19.33;;;;;;;5.34;56.03;99048.44;5051355;28;20036;-72
2021/03/14 10:18:19;;;;;;;46.72;22.05;;;;;;;5.34;56.67;99067.88;5054298;28;20041;-61
2021/03/14 10:20:44;;;;;;;37.60;19.27;;;;;;;5.38;56.20;99056.06;5050519;28;20055;-66
2021/03/14 10:23:10;;;;;;;44.28;21.60;;;;;;;5.31;56.03;99039.75;5051718;28;20468;-64
2021/03/14 10:25:38;;;;;;;46.28;21.23;;;;;;;5.45;56.52;99052.03;5050805;28;20495;-63
2021/03/14 10:28:20;;;;;;;42.03;20.67;;;;;;;5.56;56.19;99053.91;5060305;28;20071;-58
2021/03/14 10:30:48;;;;;;;38.03;20.08;;;;;;;5.49;55.94;99049.97;5070195;28;20058;-56
2021/03/14 10:33:16;;;;;;;44.70;20.33;;;;;;;5.46;56.35;99045.75;5068581;28;20052;-53
2021/03/14 10:35:43;;;;;;;45.40;20.73;;;;;;;5.38;55.79;99034.00;5048649;28;20039;-54
2021/03/14 10:38:17;;;;;;;41.05;21.05;;;;;;;5.54;56.48;99061.13;5052618;28;20037;-61
2021/03/14 10:40:43;;;;;;;41.28;19.27;;;;;;;5.43;55.90;99026.53;5050573;28;20159;-61
2021/03/14 10:43:23;;;;;;;38.58;19.83;;;;;;;5.34;56.82;99033.34;5058955;28;20063;-55
2021/03/14 10:45:49;;;;;;;41.45;20.33;;;;;;;5.44;55.89;99036.19;5065591;28;20437;-64
2021/03/14 10:48:15;;;;;;;41.45;19.83;;;;;;;5.41;56.35;99033.78;5062345;28;20502;-61
2021/03/14 10:50:41;;;;;;;39.72;19.92;;;;;;;5.23;56.12;99004.94;5069395;28;20028;-60
2021/03/14 10:53:17;;;;;;;38.58;18.50;;;;;;;5.43;56.97;99037.16;5066493;28;20037;-61
2021/03/14 10:55:44;;;;;;;39.72;19.60;;;;;;;5.39;56.27;99023.25;5066167;28;20091;-55
2021/03/14 10:58:11;;;;;;;38.95;18.73;;;;;;;5.47;56.04;99025.34;5057932;28;20068;-60
2021/03/14 11:00:42;;;;;;;34.63;18.40;;;;;;;5.38;56.21;99018.91;5064210;28;20037;-62
2021/03/14 11:03:13;;;;;;;39.22;19.10;;;;;;;5.43;56.58;99021.22;5066495;28;20446;-62
2021/03/14 11:05:40;;;;;;;37.75;19.13;;;;;;;5.31;56.23;99007.91;5062886;28;20044;-60
2021/03/14 11:08:06;;;;;;;39.15;19.65;;;;;;;5.07;57.39;98991.09;5058287;28;20063;-61
2021/03/14 11:10:31;;;;;;;42.60;19.10;;;;;;;5.32;56.84;99029.97;5061470;28;20044;-62
2021/03/14 11:12:58;;;;;;;37.92;19.55;;;;;;;5.31;57.39;99023.81;5070075;28;20047;-62
2021/03/14 11:15:28;;;;;;;38.42;18.38;;;;;;;5.31;57.37;99018.53;5069293;28;20593;-58
2021/03/14 11:17:56;;;;;;;38.45;18.50;;;;;;;5.34;57.49;99019.25;5070762;28;20117;-59
2021/03/14 11:20:23;;;;;;;37.28;18.00;;;;;;;5.34;57.40;99019.25;5069865;28;20197;-62
2021/03/14 11:22:53;;;;;;;38.20;18.08;;;;;;;5.35;57.83;99018.28;5068392;28;20192;-61
2021/03/14 11:25:20;;;;;;;38.60;18.65;;;;;;;5.29;58.06;99024.88;5075712;28;20444;-59
2021/03/14 11:27:47;;;;;;;34.15;18.67;;;;;;;5.22;57.96;99007.72;5073345;28;20025;-58
2021/03/14 11:30:17;;;;;;;36.80;18.80;;;;;;;5.21;58.36;99016.63;5071267;28;20067;-59
2021/03/14 11:32:43;;;;;;;39.30;19.42;;;;;;;5.22;58.37;99015.66;5072982;28;20040;-61